createdAt,value
2023-05-12T00:01:47.056Z,4.00
2023-05-12T00:04:14.148Z,4.10
2023-05-12T00:06:41.204Z,4.00
2023-05-12T00:09:08.096Z,4.50
2023-05-12T00:11:35.134Z,3.00
2023-05-12T00:14:02.537Z,4.30
2023-05-12T00:16:29.886Z,4.20
2023-05-12T00:18:56.987Z,4.10
2023-05-12T00:21:24.253Z,4.10
2023-05-12T00:23:51.337Z,4.50
2023-05-12T00:26:18.385Z,4.40
2023-05-12T00:28:45.652Z,4.20
2023-05-12T00:31:12.592Z,4.70
2023-05-12T00:33:39.815Z,4.10
2023-05-12T00:36:07.374Z,3.50
2023-05-12T00:38:34.975Z,4.00
2023-05-12T00:41:02.420Z,4.00
2023-05-12T00:43:30.188Z,4.00
2023-05-12T00:45:57.397Z,3.70
2023-05-12T00:48:24.864Z,4.20
2023-05-12T00:50:52.208Z,3.90
2023-05-12T00:53:19.297Z,3.40
2023-05-12T00:55:46.943Z,3.90
2023-05-12T00:58:13.972Z,3.80
2023-05-12T01:00:41.377Z,3.70
2023-05-12T01:03:09.320Z,3.40
2023-05-12T01:06:15.149Z,4.20
2023-05-12T01:08:43.379Z,4.20
2023-05-12T01:11:10.273Z,3.90
2023-05-12T01:13:39.971Z,4.50
2023-05-12T01:16:10.084Z,4.00
2023-05-12T01:18:39.447Z,4.40
2023-05-12T01:21:07.059Z,4.50
2023-05-12T01:23:43.085Z,4.70
2023-05-12T01:26:10.827Z,4.00
2023-05-12T01:28:39.468Z,4.70
2023-05-12T01:31:08.547Z,4.50
2023-05-12T01:33:36.594Z,4.30
2023-05-12T01:36:04.178Z,4.30
2023-05-12T01:38:31.217Z,4.30
2023-05-12T01:40:58.455Z,4.80
2023-05-12T01:43:25.289Z,4.40
2023-05-12T01:45:52.345Z,4.60
2023-05-12T01:48:19.630Z,4.60
2023-05-12T01:50:46.530Z,4.70
2023-05-12T01:53:13.623Z,4.40
2023-05-12T01:55:40.830Z,4.00
2023-05-12T01:58:07.972Z,5.40
2023-05-12T02:00:35.060Z,4.50
2023-05-12T02:03:02.914Z,5.20
2023-05-12T02:05:30.130Z,4.50
2023-05-12T02:07:57.146Z,4.10
2023-05-12T02:10:24.271Z,5.00
2023-05-12T02:12:51.069Z,4.50
2023-05-12T02:15:18.007Z,5.00
2023-05-12T02:17:45.445Z,4.40
2023-05-12T02:20:13.024Z,5.10
2023-05-12T02:22:39.952Z,4.50
2023-05-12T02:25:07.387Z,5.80
2023-05-12T02:27:34.502Z,4.70
2023-05-12T02:30:01.563Z,4.20
2023-05-12T02:32:28.935Z,4.10
2023-05-12T02:34:56.983Z,5.70
2023-05-12T02:37:24.114Z,4.70
2023-05-12T02:39:51.017Z,4.80
2023-05-12T02:42:17.933Z,4.80
2023-05-12T02:44:44.974Z,5.10
2023-05-12T02:47:12.342Z,4.50
2023-05-12T02:49:39.519Z,4.60
2023-05-12T02:52:06.858Z,4.70
2023-05-12T02:54:34.194Z,4.70
2023-05-12T02:57:05.392Z,5.00
2023-05-12T02:59:32.606Z,5.20
2023-05-12T03:01:59.927Z,4.70
2023-05-12T03:04:27.003Z,5.20
2023-05-12T03:06:53.859Z,3.90
2023-05-12T03:09:21.455Z,5.00
2023-05-12T03:11:48.819Z,5.20
2023-05-12T03:14:15.946Z,5.30
2023-05-12T03:16:43.264Z,4.70
2023-05-12T03:19:10.320Z,5.30
2023-05-12T03:21:37.645Z,4.70
2023-05-12T03:24:05.205Z,4.60
2023-05-12T03:26:32.182Z,4.20
2023-05-12T03:28:59.405Z,5.40
2023-05-12T03:31:26.401Z,4.90
2023-05-12T03:33:53.481Z,4.90
2023-05-12T03:36:20.226Z,5.10
2023-05-12T03:38:47.160Z,4.60
2023-05-12T03:41:14.256Z,4.70
2023-05-12T03:43:41.304Z,4.80
2023-05-12T03:46:08.544Z,5.50
2023-05-12T03:48:35.575Z,5.10
2023-05-12T03:51:02.601Z,5.00
2023-05-12T03:53:30.028Z,3.60
2023-05-12T03:55:57.135Z,5.60
2023-05-12T03:58:24.945Z,5.40
2023-05-12T04:00:52.219Z,5.60
2023-05-12T04:03:19.147Z,5.30
2023-05-12T04:05:46.207Z,5.30
2023-05-12T04:08:13.061Z,5.30
2023-05-12T04:10:41.461Z,4.40
2023-05-12T04:13:09.197Z,5.00
2023-05-12T04:15:36.123Z,5.70
2023-05-12T04:18:04.348Z,5.30
2023-05-12T04:20:31.775Z,5.00
2023-05-12T04:22:58.822Z,5.20
2023-05-12T04:25:27.054Z,4.80
2023-05-12T04:27:54.337Z,4.00
2023-05-12T04:30:22.542Z,4.70
2023-05-12T04:32:49.786Z,4.70
2023-05-12T04:35:17.148Z,3.90
2023-05-12T04:37:44.246Z,4.10
2023-05-12T04:40:11.184Z,4.80
2023-05-12T04:42:38.131Z,4.10
2023-05-12T04:45:05.995Z,5.00
2023-05-12T04:47:33.657Z,3.20
2023-05-12T04:50:00.739Z,3.20
2023-05-12T04:52:27.852Z,5.40
2023-05-12T04:54:55.063Z,4.70
2023-05-12T04:57:21.939Z,4.90
2023-05-12T04:59:49.207Z,4.00
2023-05-12T05:02:17.017Z,4.10
2023-05-12T05:04:43.800Z,4.60
2023-05-12T05:07:11.299Z,4.60
2023-05-12T05:09:38.260Z,4.40
2023-05-12T05:12:07.273Z,3.50
2023-05-12T05:14:34.934Z,4.50
2023-05-12T05:17:01.883Z,5.00
2023-05-12T05:19:44.792Z,4.70
2023-05-12T05:22:17.179Z,4.50
2023-05-12T05:24:44.213Z,3.60
2023-05-12T05:27:11.219Z,3.00
2023-05-12T05:29:38.715Z,4.00
2023-05-12T05:32:06.123Z,4.10
2023-05-12T05:34:33.397Z,3.80
2023-05-12T05:37:00.498Z,4.30
2023-05-12T05:39:31.050Z,3.20
2023-05-12T05:41:58.585Z,3.40
2023-05-12T05:44:26.191Z,4.50
2023-05-12T05:46:53.468Z,3.60
2023-05-12T05:49:20.602Z,3.80
2023-05-12T05:51:47.757Z,3.50
2023-05-12T05:54:15.000Z,4.00
2023-05-12T05:56:42.588Z,3.40
2023-05-12T05:59:10.206Z,4.40
2023-05-12T06:01:37.485Z,4.20
2023-05-12T06:04:04.798Z,4.00
2023-05-12T06:06:32.344Z,4.10
2023-05-12T06:08:59.322Z,3.90
2023-05-12T06:11:26.469Z,3.90
2023-05-12T06:13:53.712Z,3.70
2023-05-12T06:16:20.710Z,3.20
2023-05-12T06:18:48.204Z,3.10
2023-05-12T06:21:15.275Z,3.20
2023-05-12T06:23:42.576Z,3.10
2023-05-12T06:26:09.933Z,4.10
2023-05-12T06:28:37.059Z,2.90
2023-05-12T06:31:08.746Z,3.60
2023-05-12T06:33:36.097Z,3.80
2023-05-12T06:36:03.204Z,2.60
2023-05-12T06:38:30.215Z,3.90
2023-05-12T06:40:57.237Z,3.20
2023-05-12T06:43:24.582Z,2.70
2023-05-12T06:45:52.033Z,3.70
2023-05-12T06:48:19.011Z,3.30
2023-05-12T06:50:46.070Z,3.50
2023-05-12T06:53:12.921Z,3.70
2023-05-12T06:55:40.903Z,3.50
2023-05-12T06:58:08.047Z,3.80
2023-05-12T07:00:35.474Z,3.00
2023-05-12T07:03:02.834Z,3.50
2023-05-12T07:05:29.797Z,3.10
2023-05-12T07:07:57.110Z,3.10
2023-05-12T07:10:23.953Z,3.20
2023-05-12T07:12:51.456Z,3.30
2023-05-12T07:15:18.851Z,3.10
2023-05-12T07:17:46.267Z,2.90
2023-05-12T07:20:14.024Z,3.30
2023-05-12T07:22:41.339Z,2.30
2023-05-12T07:25:09.041Z,3.00
2023-05-12T07:27:36.044Z,3.40
2023-05-12T07:30:03.584Z,3.30
2023-05-12T07:32:30.602Z,2.80
2023-05-12T07:34:57.877Z,3.20
2023-05-12T07:37:25.390Z,3.10
2023-05-12T07:39:52.699Z,3.00
2023-05-12T07:42:19.779Z,3.30
2023-05-12T07:44:47.468Z,3.90
2023-05-12T07:47:14.835Z,3.10
2023-05-12T07:49:41.948Z,2.10
2023-05-12T07:52:09.171Z,2.70
2023-05-12T07:54:36.180Z,2.30
2023-05-12T07:57:03.262Z,2.60
2023-05-12T07:59:30.420Z,3.00
2023-05-12T08:01:57.829Z,2.50
2023-05-12T08:04:24.976Z,3.20
2023-05-12T08:06:51.951Z,3.00
2023-05-12T08:09:21.672Z,3.00
2023-05-12T08:11:51.770Z,2.40
2023-05-12T08:14:19.731Z,2.70
2023-05-12T08:16:47.396Z,2.80
2023-05-12T08:19:14.615Z,3.00
2023-05-12T08:21:42.258Z,2.40
2023-05-12T08:24:09.649Z,2.60
2023-05-12T08:26:36.806Z,2.40
2023-05-12T08:29:05.103Z,2.60
2023-05-12T08:31:32.849Z,2.60
2023-05-12T08:34:09.845Z,1.90
2023-05-12T08:36:41.333Z,2.10
2023-05-12T08:39:10.753Z,2.30
2023-05-12T08:41:44.077Z,2.40
2023-05-12T08:44:15.408Z,2.30
2023-05-12T08:46:43.713Z,1.80
2023-05-12T08:49:12.825Z,2.20
2023-05-12T08:51:42.581Z,2.50
2023-05-12T08:54:11.459Z,2.30
2023-05-12T08:59:10.716Z,2.20
2023-05-12T09:01:38.785Z,2.40
2023-05-12T09:04:06.634Z,2.20
2023-05-12T09:06:34.495Z,2.70
2023-05-12T09:09:01.840Z,2.20
2023-05-12T09:11:29.136Z,2.20
2023-05-12T09:14:03.615Z,2.80
2023-05-12T09:16:34.267Z,2.30
2023-05-12T09:19:04.574Z,2.20
2023-05-12T09:21:34.451Z,2.60
2023-05-12T09:24:07.009Z,2.30
2023-05-12T09:26:48.513Z,2.60
2023-05-12T09:29:27.771Z,2.50
2023-05-12T09:31:59.949Z,2.10
2023-05-12T09:34:29.628Z,2.40
2023-05-12T09:37:01.633Z,2.10
2023-05-12T09:39:29.282Z,2.40
2023-05-12T09:41:56.718Z,2.30
2023-05-12T09:44:25.162Z,2.60
2023-05-12T09:46:53.473Z,2.10
2023-05-12T09:49:21.121Z,2.30
2023-05-12T09:52:01.704Z,2.30
2023-05-12T09:54:33.842Z,2.30
2023-05-12T09:57:05.870Z,2.10
2023-05-12T09:59:34.894Z,2.50
2023-05-12T10:02:04.877Z,2.30
2023-05-12T10:04:45.779Z,2.10
2023-05-12T10:07:15.095Z,1.90
2023-05-12T10:09:44.431Z,2.30
2023-05-12T10:12:12.110Z,1.90
2023-05-12T10:14:39.191Z,2.30
2023-05-12T10:17:07.830Z,2.00
2023-05-12T10:19:36.279Z,1.90
2023-05-12T10:22:04.505Z,1.90
2023-05-12T10:24:32.434Z,1.80
2023-05-12T10:27:01.720Z,1.90
2023-05-12T10:29:44.561Z,2.10
2023-05-12T10:32:20.483Z,1.80
2023-05-12T10:34:47.590Z,1.90
2023-05-12T10:37:14.671Z,1.60
2023-05-12T10:39:53.111Z,2.10
2023-05-12T10:42:27.257Z,2.30
2023-05-12T10:44:55.907Z,2.60
2023-05-12T10:47:36.858Z,2.60
2023-05-12T10:50:04.178Z,2.20
2023-05-12T10:52:31.559Z,2.30
2023-05-12T10:55:04.208Z,1.90
2023-05-12T10:57:33.135Z,2.20
2023-05-12T11:00:08.473Z,1.60
2023-05-12T11:02:37.002Z,2.00
2023-05-12T11:05:13.271Z,1.80
2023-05-12T11:07:41.813Z,2.30
2023-05-12T11:10:10.620Z,1.40
2023-05-12T11:12:38.323Z,1.60
2023-05-12T11:15:07.601Z,1.80
2023-05-12T11:17:39.603Z,1.50
2023-05-12T11:20:07.674Z,1.50
2023-05-12T11:22:34.789Z,1.70
2023-05-12T11:25:10.679Z,1.30
2023-05-12T11:27:42.910Z,1.40
2023-05-12T11:30:11.588Z,1.50
2023-05-12T11:32:38.884Z,1.80
2023-05-12T11:35:17.652Z,1.50
2023-05-12T11:37:45.887Z,1.30
2023-05-12T11:40:20.820Z,1.60
2023-05-12T11:42:52.044Z,1.50
2023-05-12T11:45:24.863Z,1.40
2023-05-12T11:48:07.450Z,1.60
2023-05-12T11:50:38.239Z,1.60
2023-05-12T11:53:05.902Z,1.70
2023-05-12T11:55:34.460Z,1.60
2023-05-12T11:58:03.544Z,2.00
2023-05-12T12:00:35.463Z,1.50
2023-05-12T12:03:13.366Z,1.70
2023-05-12T12:05:42.378Z,1.40
2023-05-12T12:08:13.663Z,1.40
2023-05-12T12:10:45.713Z,1.50
2023-05-12T12:13:13.883Z,1.50
2023-05-12T12:15:41.172Z,1.70
2023-05-12T12:18:08.198Z,1.70
2023-05-12T12:20:35.120Z,1.20
2023-05-12T12:23:02.203Z,1.40
2023-05-12T12:25:29.353Z,1.60
2023-05-12T12:27:56.324Z,1.20
2023-05-12T12:30:23.299Z,1.60
2023-05-12T12:32:50.624Z,1.50
2023-05-12T12:35:18.124Z,1.60
2023-05-12T12:37:52.422Z,1.30
2023-05-12T12:40:20.512Z,1.30
2023-05-12T12:42:47.752Z,2.00
2023-05-12T12:45:14.822Z,1.20
2023-05-12T12:47:41.845Z,1.20
2023-05-12T12:50:10.983Z,1.40
2023-05-12T12:52:38.975Z,1.40
2023-05-12T12:55:07.732Z,1.80
2023-05-12T12:57:35.152Z,1.70
2023-05-12T13:00:03.517Z,1.20
2023-05-12T13:02:30.561Z,1.50
2023-05-12T13:04:57.602Z,1.50
2023-05-12T13:07:26.289Z,1.60
2023-05-12T13:09:53.336Z,1.70
2023-05-12T13:12:20.520Z,1.50
2023-05-12T13:14:47.875Z,1.30
2023-05-12T13:17:14.912Z,1.40
2023-05-12T13:19:42.748Z,1.60
2023-05-12T13:22:10.951Z,1.70
2023-05-12T13:24:38.425Z,1.50
2023-05-12T13:27:09.458Z,1.90
2023-05-12T13:29:37.593Z,1.50
2023-05-12T13:32:05.267Z,1.40
2023-05-12T13:34:33.029Z,1.00
2023-05-12T13:37:01.547Z,1.60
2023-05-12T13:39:28.546Z,1.70
2023-05-12T13:41:55.585Z,1.40
2023-05-12T13:44:22.704Z,1.70
2023-05-12T13:46:49.685Z,2.50
2023-05-12T13:49:19.067Z,1.70
2023-05-12T13:51:46.235Z,1.50
2023-05-12T13:54:13.350Z,1.90
2023-05-12T13:56:40.308Z,1.50
2023-05-12T13:59:09.309Z,1.50
2023-05-12T14:01:36.858Z,1.80
2023-05-12T14:04:04.448Z,1.40
2023-05-12T14:06:32.560Z,1.60
2023-05-12T14:08:59.920Z,1.80
2023-05-12T14:11:27.315Z,1.80
2023-05-12T14:13:54.203Z,1.30
2023-05-12T14:16:21.761Z,1.80
2023-05-12T14:18:48.850Z,2.00
2023-05-12T14:21:17.052Z,1.70
2023-05-12T14:23:44.511Z,1.80
2023-05-12T14:26:11.596Z,1.80
2023-05-12T14:28:39.366Z,1.30
2023-05-12T14:31:06.575Z,1.70
2023-05-12T14:33:33.691Z,2.00
2023-05-12T14:36:07.112Z,1.70
2023-05-12T14:38:35.372Z,1.80
2023-05-12T14:41:02.782Z,2.00
2023-05-12T14:43:29.633Z,2.00
2023-05-12T14:45:56.622Z,2.10
2023-05-12T14:48:30.637Z,1.90
2023-05-12T14:50:58.034Z,1.80
2023-05-12T14:53:25.614Z,1.60
2023-05-12T14:55:52.935Z,1.90
2023-05-12T14:58:21.847Z,2.20
2023-05-12T15:00:51.713Z,1.90
2023-05-12T15:03:21.676Z,1.90
2023-05-12T15:10:50.016Z,1.90
2023-05-12T15:13:20.618Z,1.90
2023-05-12T15:18:15.763Z,1.70
2023-05-12T15:20:43.467Z,1.80
2023-05-12T15:23:10.398Z,1.80
2023-05-12T15:25:42.024Z,2.10
2023-05-12T15:28:09.632Z,2.30
2023-05-12T15:30:36.797Z,2.30
2023-05-12T15:33:04.854Z,2.40
2023-05-12T15:35:33.195Z,1.80
2023-05-12T15:38:00.440Z,2.00
2023-05-12T15:40:27.494Z,1.90
2023-05-12T15:42:55.126Z,1.80
2023-05-12T15:45:22.619Z,1.70
2023-05-12T15:47:50.154Z,2.00
2023-05-12T15:50:20.325Z,1.80
2023-05-12T15:52:47.747Z,1.80
2023-05-12T15:55:15.368Z,2.10
2023-05-12T15:57:42.822Z,1.70
2023-05-12T16:00:11.318Z,2.00
2023-05-12T16:02:39.253Z,2.20
2023-05-12T16:05:07.609Z,2.20
2023-05-12T16:07:35.409Z,2.00
2023-05-12T16:10:03.821Z,2.10
2023-05-12T16:12:31.271Z,2.20
2023-05-12T16:14:58.969Z,1.70
2023-05-12T16:17:26.370Z,2.00
2023-05-12T16:19:54.043Z,2.20
2023-05-12T16:22:21.438Z,2.20
2023-05-12T16:24:59.713Z,1.90
2023-05-12T16:27:39.684Z,1.80
2023-05-12T16:30:11.626Z,2.30
2023-05-12T16:32:38.981Z,1.90
2023-05-12T16:35:07.866Z,1.40
2023-05-12T16:37:35.002Z,1.50
2023-05-12T16:40:02.055Z,1.70
2023-05-12T16:42:29.399Z,1.80
2023-05-12T16:44:56.634Z,1.30
2023-05-12T16:47:24.106Z,1.80
2023-05-12T16:49:54.533Z,1.80
2023-05-12T16:52:21.725Z,2.90
2023-05-12T16:55:02.186Z,1.80
2023-05-12T16:57:29.460Z,1.70
2023-05-12T16:59:56.828Z,1.60
2023-05-12T17:02:24.070Z,1.50
2023-05-12T17:04:51.752Z,1.60
2023-05-12T17:07:19.217Z,1.60
2023-05-12T17:09:46.433Z,1.30
2023-05-12T17:12:14.671Z,2.20
2023-05-12T17:14:42.263Z,1.80
2023-05-12T17:17:10.433Z,1.90
2023-05-12T17:19:42.640Z,1.90
2023-05-12T17:22:09.765Z,1.80
2023-05-12T17:24:37.422Z,2.60
2023-05-12T17:27:04.916Z,1.60
2023-05-12T17:29:32.175Z,1.60
2023-05-12T17:32:00.660Z,1.80
2023-05-12T17:34:27.936Z,1.80
2023-05-12T17:36:55.004Z,1.70
2023-05-12T17:39:23.541Z,1.20
2023-05-12T17:41:50.776Z,1.50
2023-05-12T17:44:17.700Z,2.00
2023-05-12T17:46:45.003Z,1.90
2023-05-12T17:49:12.099Z,1.60
2023-05-12T17:51:39.561Z,2.20
2023-05-12T17:54:06.787Z,2.00
2023-05-12T17:56:33.939Z,1.80
2023-05-12T17:59:01.136Z,1.90
2023-05-12T18:01:28.201Z,1.70
2023-05-12T18:03:55.684Z,1.90
2023-05-12T18:06:22.937Z,1.80
2023-05-12T18:08:49.984Z,2.10
2023-05-12T18:11:17.441Z,2.00
2023-05-12T18:13:44.482Z,1.70
2023-05-12T18:16:21.570Z,2.10
2023-05-12T18:18:55.274Z,1.60
2023-05-12T18:21:22.739Z,2.00
2023-05-12T18:23:49.760Z,1.80
2023-05-12T18:26:25.301Z,2.00
2023-05-12T18:29:03.286Z,2.10
2023-05-12T18:31:30.319Z,2.20
2023-05-12T18:33:57.359Z,2.00
2023-05-12T18:36:24.549Z,2.30
2023-05-12T18:38:52.020Z,2.30
2023-05-12T18:41:19.865Z,2.10
2023-05-12T18:43:47.113Z,1.70
2023-05-12T18:46:14.550Z,2.00
2023-05-12T18:48:42.134Z,2.10
2023-05-12T18:51:09.882Z,2.30
2023-05-12T18:53:37.041Z,2.10
2023-05-12T18:56:04.281Z,2.20
2023-05-12T18:58:31.232Z,2.60
2023-05-12T19:00:58.246Z,1.60
2023-05-12T19:03:25.423Z,2.30
2023-05-12T19:05:52.776Z,1.90
2023-05-12T19:08:20.250Z,2.30
2023-05-12T19:10:48.601Z,2.40
2023-05-12T19:13:15.931Z,2.30
2023-05-12T19:15:43.125Z,2.30
2023-05-12T19:18:10.364Z,2.90
2023-05-12T19:20:38.103Z,2.70
2023-05-12T19:23:05.585Z,2.20
2023-05-12T19:25:32.905Z,2.80
2023-05-12T19:28:00.726Z,2.50
2023-05-12T19:30:29.335Z,2.90
2023-05-12T19:32:57.200Z,2.60
2023-05-12T19:35:24.995Z,2.30
2023-05-12T19:37:51.964Z,2.20
2023-05-12T19:40:19.370Z,2.40
2023-05-12T19:42:46.805Z,2.50
2023-05-12T19:45:14.282Z,3.30
2023-05-12T19:47:42.273Z,2.40
2023-05-12T19:50:10.169Z,2.50
2023-05-12T19:52:37.799Z,2.50
2023-05-12T19:55:06.815Z,2.50
2023-05-12T19:57:34.414Z,3.00
2023-05-12T20:00:01.527Z,2.80
2023-05-12T20:02:31.526Z,2.40
2023-05-12T20:05:02.178Z,2.80
2023-05-12T20:07:30.167Z,2.50
2023-05-12T20:09:57.457Z,2.80
2023-05-12T20:12:24.912Z,2.30
2023-05-12T20:14:51.960Z,2.80
2023-05-12T20:17:19.329Z,2.30
2023-05-12T20:19:46.571Z,2.70
2023-05-12T20:22:13.785Z,2.90
2023-05-12T20:24:40.855Z,2.70
2023-05-12T20:27:08.485Z,3.30
2023-05-12T20:29:35.562Z,3.00
2023-05-12T20:32:02.964Z,3.50
2023-05-12T20:34:30.377Z,3.40
2023-05-12T20:36:57.853Z,3.20
2023-05-12T20:39:25.206Z,4.30
2023-05-12T20:41:52.884Z,2.80
2023-05-12T20:44:20.965Z,4.60
2023-05-12T20:46:48.556Z,3.50
2023-05-12T20:49:15.499Z,2.90
2023-05-12T20:51:42.736Z,3.10
2023-05-12T20:54:09.704Z,7.50
2023-05-12T20:56:37.153Z,3.70
2023-05-12T20:59:04.364Z,5.00
2023-05-12T21:01:31.570Z,7.70
2023-05-12T21:03:58.524Z,3.80
2023-05-12T21:06:26.048Z,6.60
2023-05-12T21:08:52.956Z,3.70
2023-05-12T21:11:20.139Z,3.70
2023-05-12T21:13:48.779Z,3.70
2023-05-12T21:16:16.953Z,4.50
2023-05-12T21:18:44.292Z,3.20
2023-05-12T21:21:11.741Z,3.90
2023-05-12T21:23:38.719Z,3.30
2023-05-12T21:26:05.805Z,2.10
2023-05-12T21:28:32.801Z,3.70
2023-05-12T21:30:59.755Z,3.90
2023-05-12T21:33:26.878Z,3.20
2023-05-12T21:35:54.230Z,3.90
2023-05-12T21:38:21.220Z,3.50
2023-05-12T21:40:56.514Z,4.10
2023-05-12T21:43:23.918Z,4.10
2023-05-12T21:45:51.149Z,5.30
2023-05-12T21:48:18.510Z,4.50
2023-05-12T21:50:46.072Z,4.60
2023-05-12T21:53:13.215Z,4.70
2023-05-12T21:55:41.756Z,5.30
2023-05-12T21:58:09.533Z,4.40
2023-05-12T22:00:36.421Z,4.50
2023-05-12T22:03:04.150Z,5.50
2023-05-12T22:05:32.244Z,5.30
2023-05-12T22:07:59.589Z,5.00
2023-05-12T22:10:27.330Z,5.00
2023-05-12T22:12:54.548Z,5.30
2023-05-12T22:15:22.389Z,5.80
2023-05-12T22:17:49.808Z,6.10
2023-05-12T22:20:17.585Z,6.40
2023-05-12T22:22:44.981Z,5.90
2023-05-12T22:25:12.160Z,6.20
2023-05-12T22:27:39.031Z,6.90
2023-05-12T22:30:07.022Z,6.70
2023-05-12T22:32:34.098Z,6.80
2023-05-12T22:35:01.296Z,6.50
2023-05-12T22:37:28.881Z,7.00
2023-05-12T22:39:55.932Z,6.50
2023-05-12T22:42:22.854Z,7.20
2023-05-12T22:44:50.445Z,7.10
2023-05-12T22:47:17.900Z,6.50
2023-05-12T22:49:44.889Z,7.00
2023-05-12T22:52:11.968Z,8.60
2023-05-12T22:54:39.294Z,7.40
2023-05-12T22:57:06.459Z,7.40
2023-05-12T22:59:33.615Z,8.00
2023-05-12T23:02:00.856Z,7.00
2023-05-12T23:04:27.837Z,7.70
2023-05-12T23:06:55.125Z,8.80
2023-05-12T23:09:21.968Z,8.30
2023-05-12T23:11:48.859Z,8.70
2023-05-12T23:14:15.964Z,8.60
2023-05-12T23:16:43.080Z,8.50
2023-05-12T23:19:10.114Z,8.50
2023-05-12T23:21:36.986Z,8.50
2023-05-12T23:24:04.485Z,7.70
2023-05-12T23:26:31.739Z,8.00
2023-05-12T23:29:03.679Z,8.20
2023-05-12T23:31:36.541Z,7.90
2023-05-12T23:34:05.237Z,7.40
2023-05-12T23:36:35.762Z,7.70
2023-05-12T23:39:08.848Z,7.80
2023-05-12T23:41:37.408Z,8.50
2023-05-12T23:44:13.015Z,7.70
2023-05-12T23:46:39.954Z,8.10
2023-05-12T23:49:07.499Z,8.30
2023-05-12T23:51:35.221Z,8.50
2023-05-12T23:54:02.060Z,8.30
2023-05-12T23:56:28.904Z,8.50
2023-05-12T23:58:55.644Z,8.40
